Time,TemperatureF,DewpointF,PressureIn,WindDirection,WindDirectionDegrees,WindSpeedMPH,WindSpeedGustMPH,Humidity,HourlyPrecipIn,Conditions,Clouds,dailyrainin,SolarRadiationWatts/m^2,SoftwareType,DateUTC
2013-07-29 00:13:00,69.7,30.0,29.99,NNE,16,9.0,16.0,23,0.00,,,0.00,0,weatherlink.com 1.10,2013-07-29 06:13:00,
2013-07-29 00:28:00,68.6,30.0,29.99,NNE,32,14.0,15.0,24,0.00,,,0.00,0,weatherlink.com 1.10,2013-07-29 06:28:00,
2013-07-29 00:43:00,68.4,30.0,30.00,NNE,23,8.0,14.0,24,0.00,,,0.00,0,weatherlink.com 1.10,2013-07-29 06:43:00,
2013-07-29 00:58:00,67.4,30.0,30.00,NNE,19,10.0,14.0,25,0.00,,,0.00,0,weatherlink.com 1.10,2013-07-29 06:58:00,
2013-07-29 01:13:00,66.9,31.0,30.00,North,9,16.0,18.0,26,0.00,,,0.00,0,weatherlink.com 1.10,2013-07-29 07:13:00,
2013-07-29 01:28:00,66.3,31.0,30.00,NNE,26,14.0,17.0,27,0.00,,,0.00,0,weatherlink.com 1.10,2013-07-29 07:28:00,
2013-07-29 01:43:00,65.9,32.0,30.01,North,360,18.0,19.0,28,0.00,,,0.00,0,weatherlink.com 1.10,2013-07-29 07:43:00,
2013-07-29 01:59:00,63.4,32.0,30.01,NNE,17,14.0,18.0,31,0.00,,,0.00,0,weatherlink.com 1.10,2013-07-29 07:59:00,
2013-07-29 02:29:00,62.6,31.0,30.01,NNE,25,8.0,10.0,31,0.00,,,0.00,0,weatherlink.com 1.10,2013-07-29 08:29:00,
2013-07-29 02:43:00,62.3,32.0,30.01,NE,38,9.0,12.0,32,0.00,,,0.00,0,weatherlink.com 1.10,2013-07-29 08:43:00,
2013-07-29 03:13:00,63.8,34.0,30.02,NNE,17,18.0,21.0,33,0.00,,,0.00,0,weatherlink.com 1.10,2013-07-29 09:13:00,
2013-07-29 03:28:00,62.5,34.0,30.02,North,5,16.0,21.0,34,0.00,,,0.00,0,weatherlink.com 1.10,2013-07-29 09:28:00,
2013-07-29 03:43:00,60.5,33.0,30.02,NNE,13,12.0,14.0,36,0.00,,,0.00,0,weatherlink.com 1.10,2013-07-29 09:43:00,
2013-07-29 03:58:00,60.3,33.0,30.03,North,355,14.0,17.0,36,0.00,,,0.00,0,weatherlink.com 1.10,2013-07-29 09:58:00,
2013-07-29 04:13:00,59.0,33.0,30.04,North,5,12.0,16.0,38,0.00,,,0.00,0,weatherlink.com 1.10,2013-07-29 10:13:00,
2013-07-29 04:28:00,57.4,34.0,30.05,North,360,10.0,12.0,41,0.00,,,0.00,0,weatherlink.com 1.10,2013-07-29 10:28:00,
2013-07-29 04:43:00,55.9,33.0,30.05,NNE,31,8.0,9.0,43,0.00,,,0.00,0,weatherlink.com 1.10,2013-07-29 10:43:00,
2013-07-29 04:58:00,55.9,33.0,30.06,NNE,28,9.0,11.0,43,0.00,,,0.00,0,weatherlink.com 1.10,2013-07-29 10:58:00,
2013-07-29 05:13:00,55.9,33.0,30.06,NE,37,10.0,13.0,43,0.00,,,0.00,0,weatherlink.com 1.10,2013-07-29 11:13:00,
2013-07-29 05:28:00,55.9,33.0,30.06,North,5,10.0,12.0,43,0.00,,,0.00,0,weatherlink.com 1.10,2013-07-29 11:28:00,
2013-07-29 05:44:00,56.5,35.0,30.07,North,355,11.0,12.0,44,0.00,,,0.00,0,weatherlink.com 1.10,2013-07-29 11:44:00,
2013-07-29 05:59:00,57.4,37.0,30.08,NNE,12,8.0,14.0,47,0.00,,,0.00,0,weatherlink.com 1.10,2013-07-29 11:59:00,
2013-07-29 06:14:00,57.3,38.0,30.08,NNW,346,7.0,12.0,49,0.00,,,0.00,0,weatherlink.com 1.10,2013-07-29 12:14:00,
2013-07-29 06:29:00,57.0,38.0,30.08,North,360,3.0,7.0,49,0.00,,,0.00,7,weatherlink.com 1.10,2013-07-29 12:29:00,
2013-07-29 07:30:00,57.0,39.0,30.10,South,176,1.0,4.0,52,0.00,,,0.00,118,weatherlink.com 1.10,2013-07-29 13:30:00,
2013-07-29 07:44:00,57.7,39.0,30.10,South,176,0.0,4.0,51,0.00,,,0.00,162,weatherlink.com 1.10,2013-07-29 13:44:00,
2013-07-29 07:59:00,58.0,39.0,30.11,South,175,0.0,3.0,50,0.00,,,0.00,193,weatherlink.com 1.10,2013-07-29 13:59:00,
2013-07-29 08:14:00,58.1,39.0,30.11,South,179,3.0,5.0,50,0.00,,,0.00,232,weatherlink.com 1.10,2013-07-29 14:14:00,
2013-07-29 08:29:00,57.6,40.0,30.11,South,182,0.0,2.0,52,0.00,,,0.00,271,weatherlink.com 1.10,2013-07-29 14:29:00,
2013-07-29 08:45:00,60.2,41.0,30.11,South,183,2.0,3.0,50,0.00,,,0.00,309,weatherlink.com 1.10,2013-07-29 14:45:00,
2013-07-29 09:30:00,63.1,42.0,30.11,SSW,209,0.0,3.0,47,0.00,,,0.00,411,weatherlink.com 1.10,2013-07-29 15:30:00,
2013-07-29 09:45:00,64.3,45.0,30.10,WNW,296,4.0,6.0,49,0.00,,,0.00,443,weatherlink.com 1.10,2013-07-29 15:45:00,
2013-07-29 10:02:00,66.3,44.0,30.10,West,277,4.0,6.0,45,0.00,,,0.00,492,weatherlink.com 1.10,2013-07-29 16:02:00,
2013-07-29 10:15:00,67.2,44.0,30.09,NNW,327,4.0,7.0,44,0.00,,,0.00,531,weatherlink.com 1.10,2013-07-29 16:15:00,
2013-07-29 10:30:00,67.6,44.0,30.09,NW,311,6.0,10.0,43,0.00,,,0.00,563,weatherlink.com 1.10,2013-07-29 16:30:00,
2013-07-29 10:45:00,68.5,45.0,30.09,NW,314,5.0,9.0,43,0.00,,,0.00,592,weatherlink.com 1.10,2013-07-29 16:45:00,
2013-07-29 11:00:00,69.5,45.0,30.08,WNW,292,6.0,13.0,42,0.00,,,0.00,617,weatherlink.com 1.10,2013-07-29 17:00:00,
2013-07-29 11:15:00,69.8,45.0,30.07,NW,304,5.0,11.0,41,0.00,,,0.00,640,weatherlink.com 1.10,2013-07-29 17:15:00,
2013-07-29 11:30:00,70.3,45.0,30.07,West,281,2.0,12.0,40,0.00,,,0.00,659,weatherlink.com 1.10,2013-07-29 17:30:00,
2013-07-29 11:45:00,71.4,44.0,30.07,NW,313,9.0,12.0,38,0.00,,,0.00,680,weatherlink.com 1.10,2013-07-29 17:45:00,
2013-07-29 12:00:00,72.1,45.0,30.06,NNW,331,10.0,12.0,38,0.00,,,0.00,698,weatherlink.com 1.10,2013-07-29 18:00:00,
2013-07-29 12:15:00,72.1,45.0,30.06,NNW,337,7.0,12.0,38,0.00,,,0.00,712,weatherlink.com 1.10,2013-07-29 18:15:00,
2013-07-29 12:30:00,73.0,44.0,30.05,NW,311,5.0,13.0,36,0.00,,,0.00,729,weatherlink.com 1.10,2013-07-29 18:30:00,
2013-07-29 12:45:00,73.4,45.0,30.05,NNW,342,5.0,13.0,36,0.00,,,0.00,744,weatherlink.com 1.10,2013-07-29 18:45:00,
2013-07-29 13:00:00,74.2,44.0,30.05,NNW,345,10.0,13.0,34,0.00,,,0.00,756,weatherlink.com 1.10,2013-07-29 19:00:00,
2013-07-29 13:16:00,75.0,42.0,30.04,WSW,239,4.0,12.0,31,0.00,,,0.00,758,weatherlink.com 1.10,2013-07-29 19:16:00,
2013-07-29 13:46:00,75.7,41.0,30.03,NNW,348,0.0,11.0,29,0.00,,,0.00,796,weatherlink.com 1.10,2013-07-29 19:46:00,
2013-07-29 14:01:00,77.2,40.0,30.03,SW,219,9.0,14.0,26,0.00,,,0.00,800,weatherlink.com 1.10,2013-07-29 20:01:00,
2013-07-29 14:31:00,78.4,38.0,30.02,SSW,211,1.0,9.0,23,0.00,,,0.00,759,weatherlink.com 1.10,2013-07-29 20:31:00,
2013-07-29 14:46:00,78.9,38.0,30.02,WSW,254,4.0,8.0,23,0.00,,,0.00,770,weatherlink.com 1.10,2013-07-29 20:46:00,
2013-07-29 15:01:00,78.2,37.0,30.02,West,264,6.0,8.0,23,0.00,,,0.00,153,weatherlink.com 1.10,2013-07-29 21:01:00,
2013-07-29 15:16:00,79.7,38.0,30.01,SSE,162,5.0,8.0,22,0.00,,,0.00,729,weatherlink.com 1.10,2013-07-29 21:16:00,
2013-07-29 15:31:00,81.7,38.0,30.01,SSW,211,10.0,14.0,21,0.00,,,0.00,703,weatherlink.com 1.10,2013-07-29 21:31:00,
2013-07-29 15:46:00,80.0,38.0,30.01,South,182,4.0,13.0,22,0.00,,,0.00,686,weatherlink.com 1.10,2013-07-29 21:46:00,
2013-07-29 16:16:00,81.1,38.0,30.01,ENE,67,7.0,12.0,21,0.00,,,0.00,647,weatherlink.com 1.10,2013-07-29 22:16:00,
2013-07-29 16:31:00,80.7,37.0,30.01,NNE,15,1.0,14.0,21,0.00,,,0.00,137,weatherlink.com 1.10,2013-07-29 22:31:00,
2013-07-29 17:01:00,80.2,39.0,30.00,NW,310,5.0,9.0,23,0.00,,,0.00,137,weatherlink.com 1.10,2013-07-29 23:01:00,
2013-07-29 17:16:00,81.0,36.0,30.00,NNE,30,4.0,7.0,20,0.00,,,0.00,413,weatherlink.com 1.10,2013-07-29 23:16:00,
2013-07-29 17:31:00,81.0,35.0,30.00,North,9,8.0,13.0,19,0.00,,,0.00,427,weatherlink.com 1.10,2013-07-29 23:31:00,
2013-07-29 17:46:00,81.6,28.0,30.00,NNE,24,12.0,17.0,14,0.00,,,0.00,346,weatherlink.com 1.10,2013-07-29 23:46:00,
2013-07-29 18:01:00,82.5,18.0,30.00,WNW,301,10.0,16.0,9,0.00,,,0.00,336,weatherlink.com 1.10,2013-07-30 00:01:00,
2013-07-29 18:16:00,82.3,15.0,30.00,West,275,9.0,13.0,8,0.00,,,0.00,323,weatherlink.com 1.10,2013-07-30 00:16:00,
2013-07-29 18:31:00,82.2,15.0,30.00,WSW,255,14.0,18.0,8,0.00,,,0.00,227,weatherlink.com 1.10,2013-07-30 00:31:00,
2013-07-29 19:01:00,81.5,22.0,30.00,WSW,258,10.0,19.0,11,0.00,,,0.00,132,weatherlink.com 1.10,2013-07-30 01:01:00,
2013-07-29 19:16:00,81.5,31.0,30.00,NW,325,12.0,15.0,16,0.00,,,0.00,137,weatherlink.com 1.10,2013-07-30 01:16:00,
2013-07-29 19:31:00,80.7,30.0,30.00,NW,311,19.0,24.0,16,0.00,,,0.00,100,weatherlink.com 1.10,2013-07-30 01:31:00,
2013-07-29 19:46:00,80.1,30.0,30.01,NNW,331,12.0,19.0,16,0.00,,,0.00,83,weatherlink.com 1.10,2013-07-30 01:46:00,
2013-07-29 20:31:00,78.7,26.0,30.02,NNW,339,14.0,22.0,14,0.00,,,0.00,51,weatherlink.com 1.10,2013-07-30 02:31:00,
2013-07-29 20:46:00,78.7,26.0,30.04,NNW,327,0.0,12.0,14,0.00,,,0.00,35,weatherlink.com 1.10,2013-07-30 02:46:00,
2013-07-29 21:01:00,78.2,25.0,30.04,ESE,104,4.0,11.0,14,0.00,,,0.00,14,weatherlink.com 1.10,2013-07-30 03:01:00,
2013-07-29 21:16:00,78.1,23.0,30.05,SSE,157,5.0,13.0,13,0.00,,,0.00,5,weatherlink.com 1.10,2013-07-30 03:16:00,
2013-07-29 22:01:00,77.1,26.0,30.07,East,86,8.0,11.0,15,0.00,,,0.00,0,weatherlink.com 1.10,2013-07-30 04:01:00,
2013-07-29 22:16:00,77.0,27.0,30.08,NE,42,16.0,17.0,16,0.00,,,0.00,0,weatherlink.com 1.10,2013-07-30 04:16:00,
2013-07-29 22:31:00,77.3,26.0,30.09,NE,36,14.0,28.0,15,0.00,,,0.00,0,weatherlink.com 1.10,2013-07-30 04:31:00,
2013-07-29 22:46:00,75.5,26.0,30.08,North,5,15.0,21.0,16,0.00,,,0.00,0,weatherlink.com 1.10,2013-07-30 04:46:00,
2013-07-29 23:01:00,75.4,26.0,30.09,NNE,19,15.0,19.0,16,0.00,,,0.00,0,weatherlink.com 1.10,2013-07-30 05:01:00,
2013-07-29 23:16:00,73.5,26.0,30.09,NNE,31,8.0,14.0,17,0.00,,,0.00,0,weatherlink.com 1.10,2013-07-30 05:16:00,
2013-07-29 23:31:00,72.3,28.0,30.09,NNE,13,10.0,11.0,19,0.00,,,0.00,0,weatherlink.com 1.10,2013-07-30 05:31:00,
2013-07-29 23:46:00,71.1,28.0,30.09,NE,34,12.0,14.0,20,0.00,,,0.00,0,weatherlink.com 1.10,2013-07-30 05:46:00,